Time;durP1;ratioP1;P1;durP2;ratioP2;P2;SDS_P1;SDS_P2;PMS_P1;PMS_P2;Temp;Humidity;BMP_temperature;BMP_pressure;BME280_temperature;BME280_humidity;BME280_pressure;Samples;Min_cycle;Max_cycle;Signal;HPM_P1;HPM_P2
2022/03/03 04:50:59;;;;;;;28.37;15.23;;;-0.60;99.90;;;;;;6084882;23;21041;-78
2022/03/03 04:53:28;;;;;;;27.98;15.68;;;-0.50;99.90;;;;;;4948419;29;20124;-81
2022/03/03 04:55:56;;;;;;;30.20;15.68;;;-0.50;99.90;;;;;;4949643;29;20115;-82
2022/03/03 04:58:23;;;;;;;27.50;15.65;;;-0.50;99.90;;;;;;4951415;29;20047;-80
2022/03/03 05:00:50;;;;;;;27.65;15.73;;;-0.40;99.70;;;;;;4952421;29;20058;-81
2022/03/03 05:03:17;;;;;;;28.17;15.07;;;-0.50;99.30;;;;;;4951400;29;20043;-79
2022/03/03 05:05:44;;;;;;;27.45;15.82;;;-0.50;99.40;;;;;;4962736;29;20051;-82
2022/03/03 05:08:11;;;;;;;27.33;15.75;;;-0.60;99.50;;;;;;4953531;29;20046;-78
2022/03/03 05:10:39;;;;;;;29.35;16.42;;;-0.60;99.80;;;;;;4947320;29;20116;-79
2022/03/03 05:13:06;;;;;;;29.48;16.98;;;-0.70;99.90;;;;;;4947300;29;20131;-76
2022/03/03 05:15:33;;;;;;;32.17;17.33;;;-0.70;99.90;;;;;;4947674;29;20130;-78
2022/03/03 05:18:01;;;;;;;30.45;16.88;;;-0.70;99.90;;;;;;4949581;29;20150;-79
2022/03/03 05:20:28;;;;;;;31.55;16.13;;;-0.80;99.90;;;;;;4961524;29;20046;-79
2022/03/03 05:22:55;;;;;;;28.88;15.68;;;-0.80;99.90;;;;;;4949842;29;20058;-81
2022/03/03 05:25:22;;;;;;;28.33;15.48;;;-0.80;99.90;;;;;;4946820;29;20062;-77
2022/03/03 05:27:51;;;;;;;28.83;16.05;;;-0.80;99.90;;;;;;4941996;29;20055;-81
2022/03/03 05:30:18;;;;;;;26.20;15.15;;;-0.80;99.90;;;;;;4952989;29;20047;-77
2022/03/03 05:32:47;;;;;;;29.77;16.13;;;-0.70;99.90;;;;;;4953633;29;20047;-76
2022/03/03 05:35:14;;;;;;;27.80;15.40;;;-0.70;99.90;;;;;;4965423;29;20047;-76
2022/03/03 05:37:42;;;;;;;29.90;15.80;;;-0.70;99.90;;;;;;4963463;29;20075;-77
2022/03/03 05:40:10;;;;;;;27.90;15.43;;;-0.70;99.90;;;;;;4964479;29;20110;-75
2022/03/03 05:42:39;;;;;;;27.67;16.17;;;-0.60;99.90;;;;;;4965923;29;20576;-77
2022/03/03 05:45:09;;;;;;;27.38;15.48;;;-0.60;99.90;;;;;;4965429;29;20051;-76
2022/03/03 05:47:36;;;;;;;30.10;15.95;;;-0.60;99.90;;;;;;4965235;29;20049;-77
2022/03/03 05:50:05;;;;;;;27.27;15.85;;;-0.60;99.90;;;;;;4965333;29;20126;-76
2022/03/03 05:52:32;;;;;;;29.08;16.02;;;-0.60;99.90;;;;;;4966602;29;20086;-79
2022/03/03 05:54:59;;;;;;;26.75;15.50;;;-0.60;99.90;;;;;;4964136;29;20126;-76
2022/03/03 05:57:34;;;;;;;25.00;14.82;;;-0.60;99.90;;;;;;4963474;29;20212;-77
2022/03/03 06:00:09;;;;;;;26.25;14.82;;;-0.60;99.60;;;;;;4964099;29;20408;-77
2022/03/03 06:02:37;;;;;;;28.05;15.85;;;-0.70;99.20;;;;;;4963585;29;20138;-76
2022/03/03 06:05:05;;;;;;;32.08;15.60;;;-0.80;99.10;;;;;;4963493;29;20501;-75
2022/03/03 06:07:39;;;;;;;29.63;16.52;;;-0.90;99.40;;;;;;4963947;29;20051;-75
2022/03/03 06:10:08;;;;;;;31.70;17.27;;;-1.00;99.70;;;;;;4963947;29;20083;-78
2022/03/03 06:12:47;;;;;;;31.25;16.33;;;-1.10;99.90;;;;;;4964004;29;20047;-77
2022/03/03 06:15:16;;;;;;;32.15;17.17;;;-1.10;99.90;;;;;;4965057;29;20047;-76
2022/03/03 06:17:44;;;;;;;30.42;17.52;;;-1.10;99.90;;;;;;4964676;29;20137;-77
2022/03/03 06:20:13;;;;;;;30.05;16.95;;;-1.10;99.90;;;;;;4964635;29;20079;-79
2022/03/03 06:22:40;;;;;;;31.00;16.60;;;-1.10;99.90;;;;;;4962835;29;20059;-77
2022/03/03 06:25:09;;;;;;;29.95;16.13;;;-1.00;99.90;;;;;;4962175;29;20082;-81
2022/03/03 06:27:36;;;;;;;28.27;16.50;;;-0.90;99.90;;;;;;4962407;29;20051;-80
2022/03/03 06:30:04;;;;;;;26.45;15.30;;;-0.90;99.90;;;;;;4960849;29;20404;-78
2022/03/03 06:32:33;;;;;;;27.60;16.13;;;-0.90;99.90;;;;;;4959924;29;20481;-78
2022/03/03 06:35:00;;;;;;;26.48;14.85;;;-0.80;99.90;;;;;;4962337;29;20051;-80
2022/03/03 06:37:27;;;;;;;26.88;14.88;;;-0.80;99.90;;;;;;4963858;28;20134;-77
2022/03/03 06:39:54;;;;;;;27.75;15.82;;;-0.80;99.90;;;;;;4966402;29;20054;-79
2022/03/03 06:42:21;;;;;;;29.25;15.73;;;-0.70;99.90;;;;;;4965537;29;20053;-79
2022/03/03 06:44:48;;;;;;;29.02;16.33;;;-0.70;99.90;;;;;;4963595;29;20485;-78
2022/03/03 06:47:16;;;;;;;30.17;15.75;;;-0.60;99.90;;;;;;4964523;29;20085;-78
2022/03/03 06:49:44;;;;;;;27.92;15.80;;;-0.60;99.90;;;;;;4962795;29;20130;-78
2022/03/03 06:52:17;;;;;;;28.13;16.25;;;-0.60;99.90;;;;;;4962018;29;20103;-77
2022/03/03 06:54:45;;;;;;;28.05;16.02;;;-0.60;99.90;;;;;;4962527;29;20057;-77
2022/03/03 06:57:13;;;;;;;26.67;15.55;;;-0.50;99.90;;;;;;4962938;29;20543;-78
2022/03/03 06:59:41;;;;;;;28.75;16.08;;;-0.50;99.90;;;;;;4963487;29;20488;-79
2022/03/03 07:02:08;;;;;;;28.38;16.77;;;-0.50;99.90;;;;;;4960994;29;20055;-79
2022/03/03 07:04:35;;;;;;;27.65;15.98;;;-0.40;99.90;;;;;;4962081;29;20051;-78
2022/03/03 07:07:04;;;;;;;26.42;15.55;;;-0.40;99.90;;;;;;4961669;29;20535;-78
2022/03/03 07:09:31;;;;;;;29.02;16.08;;;-0.40;99.90;;;;;;4961172;29;20106;-79
2022/03/03 07:12:00;;;;;;;28.48;15.50;;;-0.40;99.90;;;;;;4960969;29;20047;-78
2022/03/03 07:14:28;;;;;;;31.98;16.60;;;-0.30;99.90;;;;;;4962399;29;20095;-78
2022/03/03 07:17:01;;;;;;;26.65;15.75;;;-0.20;99.90;;;;;;4959772;29;20071;-79
2022/03/03 07:19:48;;;;;;;30.08;16.80;;;-0.20;99.90;;;;;;4955642;29;20058;-77
2022/03/03 07:22:21;;;;;;;30.98;16.88;;;-0.10;99.90;;;;;;4959444;29;20575;-77
2022/03/03 07:24:53;;;;;;;31.05;17.20;;;0.00;99.90;;;;;;4958529;29;20050;-77
2022/03/03 07:27:23;;;;;;;31.10;17.60;;;0.00;99.70;;;;;;4960022;29;20416;-78
2022/03/03 07:29:56;;;;;;;28.33;16.27;;;0.00;99.90;;;;;;4960979;29;20057;-79
2022/03/03 07:32:33;;;;;;;31.40;17.42;;;0.10;99.90;;;;;;4964168;29;20055;-76
2022/03/03 07:35:05;;;;;;;28.27;16.45;;;0.10;99.90;;;;;;4962681;29;20421;-77
2022/03/03 07:37:40;;;;;;;31.65;16.70;;;0.20;99.90;;;;;;4962134;29;20051;-79
2022/03/03 07:40:10;;;;;;;27.27;15.77;;;0.30;99.90;;;;;;4964021;29;20413;-78
2022/03/03 07:42:39;;;;;;;30.50;16.55;;;0.40;99.90;;;;;;4965864;29;20055;-76
2022/03/03 07:45:08;;;;;;;29.02;16.45;;;0.50;99.90;;;;;;4964834;29;20106;-79
2022/03/03 07:47:36;;;;;;;29.13;17.67;;;0.60;99.80;;;;;;4961545;29;20501;-79
2022/03/03 07:50:05;;;;;;;30.75;16.95;;;0.70;99.60;;;;;;4958032;28;20051;-79
2022/03/03 07:52:35;;;;;;;30.50;16.83;;;0.70;99.60;;;;;;4960773;29;20061;-79
2022/03/03 07:55:02;;;;;;;30.13;18.05;;;0.80;99.50;;;;;;4959255;29;20050;-78
2022/03/03 07:57:36;;;;;;;30.60;17.05;;;0.80;99.40;;;;;;4959619;29;20133;-77
2022/03/03 08:00:07;;;;;;;30.38;17.48;;;0.80;99.40;;;;;;4959336;29;20452;-77
2022/03/03 08:02:35;;;;;;;28.65;16.50;;;0.90;99.30;;;;;;4959219;29;20047;-78
2022/03/03 08:05:06;;;;;;;30.98;17.67;;;0.90;99.20;;;;;;4958985;29;20445;-77
2022/03/03 08:07:42;;;;;;;29.38;17.75;;;1.00;99.00;;;;;;4960625;29;20058;-77
2022/03/03 08:10:12;;;;;;;30.88;17.83;;;1.00;99.00;;;;;;4951212;29;20056;-77
2022/03/03 08:12:40;;;;;;;31.00;17.35;;;1.00;98.80;;;;;;4939943;29;20055;-76
2022/03/03 08:15:09;;;;;;;27.00;16.40;;;1.10;98.80;;;;;;4938751;29;20432;-78
2022/03/03 08:17:37;;;;;;;29.13;16.58;;;1.10;98.90;;;;;;4940318;29;20103;-80
2022/03/03 08:20:07;;;;;;;28.75;16.60;;;1.20;99.10;;;;;;4938576;29;20135;-79
2022/03/03 08:22:39;;;;;;;27.73;15.93;;;1.30;99.10;;;;;;4939853;29;20048;-79
2022/03/03 08:25:08;;;;;;;30.52;17.55;;;1.40;98.90;;;;;;4939589;29;20058;-78
2022/03/03 08:27:37;;;;;;;27.23;16.23;;;1.50;98.80;;;;;;4940440;29;20508;-77
2022/03/03 08:30:07;;;;;;;29.80;16.42;;;1.60;98.50;;;;;;4940985;29;20052;-79
2022/03/03 08:32:38;;;;;;;31.73;16.55;;;1.60;98.20;;;;;;4939870;29;20054;-77
2022/03/03 08:35:12;;;;;;;28.63;17.17;;;1.70;98.20;;;;;;4945746;29;20071;-79
2022/03/03 08:37:43;;;;;;;30.75;16.95;;;1.80;98.00;;;;;;4944870;29;20114;-79
2022/03/03 08:40:13;;;;;;;25.63;15.48;;;1.80;98.00;;;;;;4943937;29;20052;-81
2022/03/03 08:42:45;;;;;;;29.33;16.75;;;1.90;98.00;;;;;;4944606;29;20052;-80
2022/03/03 08:45:12;;;;;;;27.27;16.50;;;2.00;97.90;;;;;;4944317;29;20197;-81
2022/03/03 08:47:42;;;;;;;28.05;17.30;;;2.10;97.90;;;;;;4942809;29;20055;-81
2022/03/03 08:50:14;;;;;;;29.10;16.42;;;2.20;97.70;;;;;;4940907;29;20053;-79
2022/03/03 08:52:44;;;;;;;32.08;17.23;;;2.20;97.50;;;;;;4937491;29;20067;-79
2022/03/03 08:55:13;;;;;;;27.13;15.60;;;2.30;97.50;;;;;;4938180;29;20051;-82
2022/03/03 08:57:42;;;;;;;27.65;16.20;;;2.40;97.50;;;;;;4937878;29;20052;-78
2022/03/03 09:00:12;;;;;;;26.40;15.93;;;2.50;97.20;;;;;;4937194;29;20051;-80
2022/03/03 09:02:41;;;;;;;26.10;15.50;;;2.60;97.00;;;;;;4938537;29;20139;-81
2022/03/03 09:05:09;;;;;;;30.00;16.92;;;2.70;96.90;;;;;;4938072;29;20058;-78
2022/03/03 09:07:36;;;;;;;28.65;16.13;;;2.80;96.20;;;;;;4937400;29;20142;-81
2022/03/03 09:10:06;;;;;;;27.00;14.75;;;2.90;95.70;;;;;;4937749;29;20047;-78
2022/03/03 09:12:34;;;;;;;24.58;15.05;;;3.00;95.70;;;;;;4938487;29;20496;-80
2022/03/03 09:15:01;;;;;;;24.20;14.60;;;3.10;95.50;;;;;;4937826;29;20081;-78
2022/03/03 09:17:28;;;;;;;23.48;14.43;;;3.20;95.20;;;;;;4937505;29;20052;-79
2022/03/03 09:19:55;;;;;;;25.45;14.98;;;3.30;94.80;;;;;;4941612;29;20079;-83
2022/03/03 09:22:22;;;;;;;23.67;14.05;;;3.40;94.30;;;;;;4941700;29;20103;-77
2022/03/03 09:24:49;;;;;;;22.83;13.98;;;3.50;94.10;;;;;;4938699;29;20051;-80
2022/03/03 09:27:18;;;;;;;24.00;15.00;;;3.60;93.90;;;;;;4927978;29;20457;-78
2022/03/03 09:29:45;;;;;;;23.48;14.85;;;3.70;93.60;;;;;;4916437;29;20052;-79
2022/03/03 09:32:13;;;;;;;25.30;14.82;;;3.70;93.20;;;;;;4917458;29;20508;-81
2022/03/03 09:34:40;;;;;;;22.90;14.82;;;3.70;93.00;;;;;;4920654;29;20056;-82
2022/03/03 09:37:07;;;;;;;22.02;14.10;;;3.80;92.90;;;;;;4919243;29;20052;-79
2022/03/03 09:39:35;;;;;;;24.30;15.00;;;3.90;92.80;;;;;;4922347;29;20052;-82
2022/03/03 09:42:02;;;;;;;24.67;14.32;;;3.90;92.10;;;;;;4937237;29;20117;-78
2022/03/03 09:44:30;;;;;;;22.88;14.10;;;4.00;92.30;;;;;;4932245;29;20062;-80
2022/03/03 09:46:58;;;;;;;21.33;13.48;;;4.10;92.00;;;;;;4940521;29;20055;-81
2022/03/03 09:49:25;;;;;;;20.95;12.63;;;4.10;91.60;;;;;;4954686;29;20055;-79
2022/03/03 09:51:52;;;;;;;21.83;13.50;;;4.20;91.60;;;;;;4953659;29;20527;-80
2022/03/03 09:54:19;;;;;;;23.25;13.38;;;4.30;91.40;;;;;;4950991;29;20055;-80
2022/03/03 09:56:46;;;;;;;20.95;13.23;;;4.30;91.20;;;;;;4933980;29;20138;-79
2022/03/03 09:59:14;;;;;;;22.85;13.07;;;4.40;90.90;;;;;;4934566;29;20048;-83
2022/03/03 10:01:43;;;;;;;21.35;12.95;;;4.50;90.60;;;;;;4946246;29;20128;-81
2022/03/03 10:04:19;;;;;;;24.63;14.95;;;4.60;90.00;;;;;;4954457;29;20051;-82
2022/03/03 10:06:46;;;;;;;25.80;14.18;;;4.60;88.70;;;;;;4954195;29;20484;-85
2022/03/03 10:09:14;;;;;;;22.77;13.40;;;4.70;87.20;;;;;;4954103;29;20646;-78
2022/03/03 10:11:42;;;;;;;27.27;14.73;;;4.70;86.60;;;;;;4947230;29;20081;-81
2022/03/03 10:14:09;;;;;;;20.80;13.40;;;4.70;85.50;;;;;;4944729;29;20079;-81
2022/03/03 10:16:36;;;;;;;20.65;12.80;;;4.70;86.30;;;;;;4957205;29;20061;-78
2022/03/03 10:19:06;;;;;;;20.88;12.15;;;4.80;86.60;;;;;;4939907;29;20060;-78
2022/03/03 10:21:37;;;;;;;20.20;12.98;;;4.90;86.70;;;;;;4937313;29;20130;-80
2022/03/03 10:24:17;;;;;;;21.50;12.43;;;4.90;86.30;;;;;;4937329;29;20505;-83
2022/03/03 10:26:46;;;;;;;19.65;12.98;;;5.00;86.30;;;;;;4944132;29;20406;-80
2022/03/03 10:29:18;;;;;;;20.90;13.25;;;5.10;86.10;;;;;;4956631;29;20400;-80
2022/03/03 10:31:51;;;;;;;22.77;12.80;;;5.20;85.70;;;;;;4942458;29;20048;-80
2022/03/03 10:34:22;;;;;;;20.65;13.18;;;5.30;85.30;;;;;;4937854;29;20048;-81
2022/03/03 10:37:00;;;;;;;24.23;15.10;;;5.40;85.10;;;;;;4937607;29;20412;-81
2022/03/03 10:39:40;;;;;;;24.70;14.48;;;5.40;84.20;;;;;;4937862;29;20047;-81
2022/03/03 10:42:14;;;;;;;23.17;13.35;;;5.50;84.70;;;;;;4937286;29;20051;-80
2022/03/03 10:44:42;;;;;;;20.15;12.43;;;5.60;84.30;;;;;;4935441;29;20255;-80
2022/03/03 10:47:11;;;;;;;19.67;12.55;;;5.60;83.80;;;;;;4937743;29;20062;-81
2022/03/03 10:49:43;;;;;;;19.02;11.82;;;5.70;83.60;;;;;;4937300;29;20142;-82
2022/03/03 10:52:16;;;;;;;22.40;13.13;;;5.80;83.50;;;;;;4928529;29;20063;-79
2022/03/03 10:54:55;;;;;;;20.63;12.55;;;5.90;83.20;;;;;;4918271;29;20496;-80
2022/03/03 10:57:35;;;;;;;23.42;14.38;;;6.00;82.40;;;;;;4917815;29;20044;-80
2022/03/03 11:00:07;;;;;;;21.50;13.50;;;6.00;81.20;;;;;;4917782;29;20159;-79
2022/03/03 11:02:35;;;;;;;23.48;13.50;;;6.10;80.70;;;;;;4917350;29;20413;-77
2022/03/03 11:05:05;;;;;;;20.27;12.43;;;6.20;80.40;;;;;;4917536;29;20056;-78
2022/03/03 11:07:33;;;;;;;21.00;13.57;;;6.30;80.00;;;;;;4917460;29;20115;-80
2022/03/03 11:10:01;;;;;;;23.05;13.65;;;6.40;79.20;;;;;;4918025;29;20052;-81
2022/03/03 11:12:29;;;;;;;21.38;12.60;;;6.40;78.60;;;;;;4917820;29;20054;-82
2022/03/03 11:14:57;;;;;;;17.83;11.70;;;6.50;78.00;;;;;;4916934;29;20062;-81
2022/03/03 11:17:24;;;;;;;19.85;12.43;;;6.60;77.50;;;;;;4916805;29;20417;-79
2022/03/03 11:19:55;;;;;;;22.00;13.00;;;6.60;76.50;;;;;;4927346;29;20083;-80
2022/03/03 11:22:24;;;;;;;20.73;13.10;;;6.70;76.10;;;;;;4935774;29;20051;-79
2022/03/03 11:24:51;;;;;;;20.67;12.38;;;6.80;73.40;;;;;;4918172;29;20052;-80
2022/03/03 11:27:19;;;;;;;19.15;12.32;;;6.80;73.30;;;;;;4916493;29;20066;-80
2022/03/03 11:30:15;;;;;;;18.80;12.50;;;6.90;73.80;;;;;;4907321;29;20044;-79
2022/03/03 11:32:42;;;;;;;22.40;13.50;;;7.00;73.80;;;;;;4918298;29;20070;-78
2022/03/03 11:35:12;;;;;;;19.05;12.35;;;7.10;73.10;;;;;;4916680;29;20501;-80
2022/03/03 11:37:43;;;;;;;21.05;12.02;;;7.20;72.60;;;;;;4917391;29;20056;-80
2022/03/03 11:40:13;;;;;;;21.58;12.93;;;7.20;72.00;;;;;;4916736;29;20426;-80
2022/03/03 11:42:48;;;;;;;20.85;12.55;;;7.30;70.80;;;;;;4917042;29;20048;-80
2022/03/03 11:45:37;;;;;;;21.55;12.85;;;7.40;69.70;;;;;;4915264;29;20051;-79
2022/03/03 11:48:16;;;;;;;19.30;11.95;;;7.50;67.60;;;;;;4916847;29;20105;-80
2022/03/03 11:50:44;;;;;;;21.30;11.98;;;7.50;67.00;;;;;;4916584;29;20080;-81
2022/03/03 11:53:24;;;;;;;19.45;11.68;;;7.60;66.90;;;;;;4933853;29;20059;-79
2022/03/03 11:56:01;;;;;;;21.00;12.80;;;7.80;66.90;;;;;;4935735;29;20060;-79
2022/03/03 11:58:32;;;;;;;22.15;14.20;;;7.90;65.30;;;;;;4935971;29;20087;-78
2022/03/03 12:01:09;;;;;;;23.27;13.35;;;8.00;65.40;;;;;;4919732;29;20063;-82
2022/03/03 12:04:00;;;;;;;21.45;13.43;;;8.10;64.60;;;;;;4916231;29;20051;-81
2022/03/03 12:06:38;;;;;;;20.55;12.68;;;8.20;64.00;;;;;;4916369;29;20087;-78
2022/03/03 12:09:30;;;;;;;21.45;12.70;;;8.30;64.30;;;;;;4915914;29;20082;-79
2022/03/03 12:12:12;;;;;;;23.05;13.45;;;8.40;63.00;;;;;;4923414;29;20062;-79
2022/03/03 12:14:54;;;;;;;23.17;13.25;;;8.60;63.10;;;;;;4931627;29;20126;-77
2022/03/03 12:17:42;;;;;;;22.25;13.25;;;8.70;62.80;;;;;;4915573;29;20472;-80
2022/03/03 12:20:35;;;;;;;22.20;13.25;;;8.90;62.40;;;;;;4933397;29;20052;-80
2022/03/03 12:23:31;;;;;;;21.80;13.60;;;9.00;62.40;;;;;;4920264;29;20052;-79
2022/03/03 12:26:04;;;;;;;25.70;14.93;;;9.30;61.60;;;;;;4898721;29;20048;-78
2022/03/03 12:28:41;;;;;;;25.67;15.52;;;9.40;59.90;;;;;;4918894;29;20116;-75
2022/03/03 12:31:26;;;;;;;22.98;14.05;;;9.60;59.20;;;;;;4934400;29;20048;-81
2022/03/03 12:34:02;;;;;;;21.00;13.20;;;9.70;59.10;;;;;;4920442;29;20572;-79
2022/03/03 12:36:31;;;;;;;22.85;14.27;;;9.90;58.90;;;;;;4915170;29;20048;-79
2022/03/03 12:38:59;;;;;;;24.13;14.20;;;10.00;57.80;;;;;;4926044;29;20143;-77
2022/03/03 12:41:30;;;;;;;22.35;13.63;;;10.20;57.10;;;;;;4935005;29;20446;-79
2022/03/03 12:44:09;;;;;;;25.90;14.45;;;10.30;57.20;;;;;;4922247;29;20052;-79
2022/03/03 12:46:37;;;;;;;21.90;13.55;;;10.40;57.00;;;;;;4928106;29;20545;-78
2022/03/03 12:49:05;;;;;;;22.65;13.00;;;10.60;57.10;;;;;;4921593;29;20051;-79
2022/03/03 12:51:32;;;;;;;21.60;13.95;;;10.80;56.30;;;;;;4919164;29;20066;-79
2022/03/03 12:54:05;;;;;;;21.60;13.30;;;11.00;56.00;;;;;;4934945;29;20044;-78
2022/03/03 12:56:34;;;;;;;22.77;13.40;;;;;;;;;;4933192;29;20135;-77
2022/03/03 12:59:07;;;;;;;22.80;13.90;;;11.40;54.90;;;;;;4934418;29;20065;-78
2022/03/03 13:01:36;;;;;;;23.17;14.43;;;11.50;54.30;;;;;;4933840;29;20139;-78
2022/03/03 13:04:04;;;;;;;26.23;15.30;;;11.70;54.20;;;;;;4933534;29;20058;-80
2022/03/03 13:06:33;;;;;;;22.23;14.80;;;11.80;52.60;;;;;;4933387;29;20063;-79
2022/03/03 13:09:02;;;;;;;22.52;13.73;;;11.90;51.60;;;;;;4933785;29;20056;-77
2022/03/03 13:11:30;;;;;;;23.75;15.07;;;12.10;51.60;;;;;;4933790;29;20122;-77
2022/03/03 13:14:03;;;;;;;23.45;14.70;;;12.30;50.60;;;;;;4933651;29;20046;-78
2022/03/03 13:16:30;;;;;;;23.23;13.73;;;12.50;49.20;;;;;;4933589;29;20134;-78
2022/03/03 13:19:02;;;;;;;20.65;12.55;;;12.60;48.30;;;;;;4934045;29;20054;-78
2022/03/03 13:21:33;;;;;;;20.38;11.90;;;12.80;48.40;;;;;;4933346;29;20047;-77
2022/03/03 13:24:03;;;;;;;17.95;11.13;;;13.00;48.30;;;;;;4934194;29;20047;-80
2022/03/03 13:26:40;;;;;;;18.55;11.57;;;13.20;47.50;;;;;;4933376;29;20048;-78
2022/03/03 13:29:15;;;;;;;20.35;13.15;;;13.40;47.20;;;;;;4933006;29;20115;-79
2022/03/03 13:31:43;;;;;;;19.77;13.63;;;13.60;46.20;;;;;;4932713;29;20130;-80
2022/03/03 13:34:22;;;;;;;20.08;13.50;;;13.80;46.20;;;;;;4933400;29;20720;-77
2022/03/03 13:36:52;;;;;;;20.60;14.20;;;14.00;46.30;;;;;;4933423;29;20056;-78
2022/03/03 13:39:24;;;;;;;24.48;15.07;;;14.20;46.00;;;;;;4931795;29;20063;-77
2022/03/03 13:42:00;;;;;;;22.10;15.25;;;14.40;46.00;;;;;;4933014;29;20051;-79
2022/03/03 13:44:30;;;;;;;25.00;16.38;;;14.60;46.10;;;;;;4931467;29;20052;-78
2022/03/03 13:47:00;;;;;;;20.90;15.13;;;14.90;45.90;;;;;;4932589;29;20540;-80
2022/03/03 13:49:29;;;;;;;21.92;15.00;;;15.20;46.00;;;;;;4933372;29;20047;-78
2022/03/03 13:52:14;;;;;;;21.45;15.50;;;15.40;45.90;;;;;;4932323;29;20127;-78
2022/03/03 13:54:49;;;;;;;21.10;15.40;;;15.80;45.20;;;;;;4932162;29;20138;-80
2022/03/03 13:57:40;;;;;;;23.30;15.48;;;16.10;45.00;;;;;;4932349;29;20051;-80
2022/03/03 14:00:25;;;;;;;21.80;16.40;;;16.30;44.30;;;;;;4933134;29;20055;-75
2022/03/03 14:03:00;;;;;;;22.85;15.90;;;16.60;43.00;;;;;;4932055;29;20058;-79
2022/03/03 14:05:50;;;;;;;25.33;16.77;;;17.10;42.40;;;;;;4932270;29;20047;-80
2022/03/03 14:08:21;;;;;;;22.10;17.02;;;;;;;;;;4928375;29;20055;-77
2022/03/03 14:10:57;;;;;;;22.60;16.40;;;19.80;38.20;;;;;;4932313;29;20048;-77
2022/03/03 14:13:26;;;;;;;21.23;16.48;;;20.00;38.70;;;;;;4932099;29;20056;-80
2022/03/03 14:15:57;;;;;;;22.95;16.60;;;23.30;35.50;;;;;;4931892;29;20511;-79
2022/03/03 14:18:26;;;;;;;20.55;15.52;;;24.10;34.20;;;;;;4932278;29;20044;-81
2022/03/03 14:20:55;;;;;;;19.80;15.88;;;26.20;31.20;;;;;;4932467;29;20416;-79
2022/03/03 14:23:23;;;;;;;20.00;15.18;;;27.30;30.90;;;;;;4932039;29;20059;-80
2022/03/03 14:25:51;;;;;;;20.33;16.48;;;28.70;29.90;;;;;;4931887;29;20082;-77
2022/03/03 14:28:18;;;;;;;21.08;16.08;;;29.80;28.80;;;;;;4931855;29;20055;-79
2022/03/03 14:30:46;;;;;;;21.35;17.15;;;30.60;28.50;;;;;;4932201;29;20051;-80
2022/03/03 14:33:14;;;;;;;19.17;16.25;;;31.20;27.80;;;;;;4931761;29;20831;-80
2022/03/03 14:35:42;;;;;;;18.63;15.20;;;31.80;27.30;;;;;;4931810;29;20055;-80
2022/03/03 14:38:09;;;;;;;21.45;15.27;;;32.20;27.30;;;;;;4931812;29;20051;-80
2022/03/03 14:40:37;;;;;;;19.02;15.57;;;32.70;26.80;;;;;;4931960;29;20370;-79
2022/03/03 14:43:05;;;;;;;19.20;15.85;;;33.10;26.70;;;;;;4932297;29;20540;-79
2022/03/03 14:45:32;;;;;;;18.83;15.50;;;33.50;26.50;;;;;;4929927;29;20519;-78
2022/03/03 14:47:59;;;;;;;20.38;15.73;;;33.70;26.20;;;;;;4931848;29;20047;-80
2022/03/03 14:50:30;;;;;;;17.23;13.85;;;33.80;26.00;;;;;;4932028;29;20058;-78
2022/03/03 14:52:57;;;;;;;17.45;14.48;;;33.60;45.70;;;;;;4895422;29;1090733;-80
2022/03/03 14:55:25;;;;;;;17.83;14.30;;;33.70;26.10;;;;;;4932478;29;20139;-79
2022/03/03 14:57:52;;;;;;;17.23;14.70;;;33.80;25.90;;;;;;4932726;29;20516;-80
2022/03/03 15:00:20;;;;;;;17.10;14.68;;;33.80;25.70;;;;;;4935512;29;20111;-77
2022/03/03 15:02:49;;;;;;;16.73;14.93;;;33.80;25.70;;;;;;4935893;29;20516;-79
2022/03/03 15:05:16;;;;;;;18.05;14.52;;;33.80;25.60;;;;;;4936372;29;20058;-80
2022/03/03 15:07:45;;;;;;;18.67;14.85;;;33.60;25.70;;;;;;4935715;29;20146;-78
2022/03/03 15:10:15;;;;;;;16.38;14.13;;;33.30;25.70;;;;;;4935981;29;20052;-79
2022/03/03 15:12:43;;;;;;;17.27;15.40;;;33.20;25.80;;;;;;4936959;29;20077;-80
2022/03/03 15:15:11;;;;;;;17.20;14.63;;;33.20;25.90;;;;;;4942141;29;20047;-75
2022/03/03 15:17:41;;;;;;;17.17;14.93;;;33.30;25.80;;;;;;4937822;29;20134;-79
2022/03/03 15:20:11;;;;;;;17.05;14.57;;;33.00;25.90;;;;;;4937023;29;20107;-79
2022/03/03 15:22:38;;;;;;;18.05;14.73;;;32.70;25.90;;;;;;4937631;29;20119;-77
2022/03/03 15:25:09;;;;;;;17.58;15.00;;;32.40;26.10;;;;;;4937412;29;20051;-75
2022/03/03 15:27:36;;;;;;;17.35;14.98;;;32.30;26.20;;;;;;4938385;29;20057;-77
2022/03/03 15:30:05;;;;;;;16.73;14.10;;;32.30;26.30;;;;;;4938940;29;20059;-80
2022/03/03 15:32:32;;;;;;;17.92;14.63;;;32.10;26.30;;;;;;4935522;29;20438;-77
2022/03/03 15:37:44;;;;;;;18.67;15.05;;;31.90;26.80;;;;;;4935393;29;20261;-80
2022/03/03 15:40:12;;;;;;;17.35;14.38;;;31.60;26.30;;;;;;4935267;29;20056;-80
2022/03/03 15:42:40;;;;;;;19.35;15.23;;;31.40;26.60;;;;;;4935072;29;20078;-77
2022/03/03 15:45:08;;;;;;;17.88;15.07;;;31.30;26.40;;;;;;4933429;29;20051;-79
2022/03/03 15:47:35;;;;;;;21.92;15.63;;;31.30;26.50;;;;;;4935453;29;20061;-79
2022/03/03 15:50:03;;;;;;;17.27;13.73;;;31.20;26.40;;;;;;4934938;29;20047;-80
2022/03/03 15:52:30;;;;;;;16.67;14.88;;;30.70;26.30;;;;;;4933982;29;20055;-77
2022/03/03 15:54:57;;;;;;;18.38;14.98;;;30.40;26.50;;;;;;4934303;29;20087;-80
2022/03/03 15:57:25;;;;;;;19.10;14.95;;;30.20;26.40;;;;;;4936635;29;20512;-75
2022/03/03 15:59:54;;;;;;;18.98;14.73;;;29.80;26.50;;;;;;4935316;29;20047;-75
2022/03/03 16:02:21;;;;;;;18.77;15.38;;;29.20;26.50;;;;;;4959129;29;20039;-79
2022/03/03 16:04:48;;;;;;;18.40;14.82;;;27.90;26.10;;;;;;4936939;29;20134;-75
2022/03/03 16:07:16;;;;;;;18.45;14.55;;;27.00;27.00;;;;;;4937247;29;20052;-76
2022/03/03 16:09:43;;;;;;;19.88;15.65;;;24.70;27.30;;;;;;4939918;29;20071;-75
2022/03/03 16:12:10;;;;;;;20.98;16.27;;;24.30;28.10;;;;;;4944574;29;20055;-75
2022/03/03 16:14:39;;;;;;;20.65;14.82;;;23.60;28.90;;;;;;4946616;29;20580;-73
2022/03/03 16:17:07;;;;;;;21.55;15.70;;;23.50;29.20;;;;;;4935235;29;20058;-76
2022/03/03 16:19:34;;;;;;;18.98;14.90;;;23.60;29.30;;;;;;4935034;29;20055;-75
2022/03/03 16:22:02;;;;;;;19.75;15.80;;;23.40;29.30;;;;;;4934464;29;20063;-73
2022/03/03 16:24:29;;;;;;;20.10;15.38;;;23.20;29.50;;;;;;4933079;29;20051;-80
2022/03/03 16:26:56;;;;;;;20.08;15.48;;;23.10;29.50;;;;;;4933379;29;20131;-81
2022/03/03 16:29:24;;;;;;;21.75;15.90;;;22.90;29.50;;;;;;4934441;29;20066;-75
2022/03/03 16:32:01;;;;;;;20.67;15.63;;;22.80;29.70;;;;;;4934159;29;20055;-79
2022/03/03 16:34:30;;;;;;;20.75;15.15;;;22.60;29.90;;;;;;4933805;29;20123;-81
2022/03/03 16:36:58;;;;;;;19.98;14.63;;;22.40;29.80;;;;;;4932974;29;20461;-77
2022/03/03 16:39:25;;;;;;;19.42;15.40;;;21.90;29.80;;;;;;4933252;29;20115;-80
2022/03/03 16:41:54;;;;;;;20.08;14.90;;;21.50;30.00;;;;;;4933728;29;20051;-79
2022/03/03 16:44:21;;;;;;;18.92;14.32;;;21.00;30.40;;;;;;4948310;29;20067;-77
2022/03/03 16:46:48;;;;;;;18.10;14.50;;;20.60;30.50;;;;;;4953206;29;20051;-80
2022/03/03 16:49:17;;;;;;;17.85;14.10;;;20.20;30.90;;;;;;4953256;29;20059;-78
2022/03/03 16:51:45;;;;;;;21.88;15.60;;;19.80;31.40;;;;;;4952617;29;20052;-78
2022/03/03 16:54:13;;;;;;;21.25;15.07;;;19.40;31.90;;;;;;4935420;29;20054;-77
2022/03/03 16:56:40;;;;;;;23.17;16.08;;;19.00;32.30;;;;;;4935280;29;20665;-79
2022/03/03 16:59:08;;;;;;;23.40;16.08;;;18.40;32.10;;;;;;4933850;29;20055;-77
2022/03/03 17:01:37;;;;;;;22.77;16.38;;;18.00;33.30;;;;;;4933418;29;20047;-80
2022/03/03 17:04:05;;;;;;;22.73;15.60;;;17.40;33.90;;;;;;4933742;29;20386;-75
2022/03/03 17:06:34;;;;;;;25.50;17.38;;;16.90;34.50;;;;;;4933291;29;20489;-77
2022/03/03 17:09:03;;;;;;;26.42;17.60;;;16.30;35.10;;;;;;4933647;29;20054;-80
2022/03/03 17:11:30;;;;;;;25.42;17.15;;;15.70;36.00;;;;;;4933386;29;20099;-78
2022/03/03 17:13:59;;;;;;;22.55;16.40;;;15.20;36.60;;;;;;4952834;29;20047;-80
2022/03/03 17:16:26;;;;;;;24.50;15.32;;;14.70;37.20;;;;;;4937237;29;20413;-78
2022/03/03 17:18:53;;;;;;;25.77;15.93;;;14.30;37.80;;;;;;4933648;29;20143;-78
2022/03/03 17:21:21;;;;;;;23.75;15.45;;;13.90;38.30;;;;;;4936136;28;20078;-78
2022/03/03 17:23:50;;;;;;;23.55;15.70;;;13.60;38.80;;;;;;4933193;29;20051;-80
2022/03/03 17:26:18;;;;;;;23.92;15.63;;;13.30;39.20;;;;;;4933468;29;20060;-79
2022/03/03 17:28:47;;;;;;;21.55;14.18;;;13.10;39.60;;;;;;4925516;29;20043;-78
2022/03/03 17:31:15;;;;;;;21.63;14.10;;;12.80;39.90;;;;;;4933623;29;20086;-75
2022/03/03 17:33:42;;;;;;;21.27;14.18;;;12.60;40.20;;;;;;4934489;29;20140;-77
2022/03/03 17:36:09;;;;;;;25.23;14.90;;;12.40;40.40;;;;;;4933460;29;20158;-78
2022/03/03 17:38:37;;;;;;;23.48;16.65;;;12.20;40.90;;;;;;4933732;29;20055;-77